sensor_id;sensor_type;location;lat;lon;timestamp;P1;durP1;ratioP1;P2;durP2;ratioP2
19828;SDS011;10075;50.924;4.396;2022-07-12T00:01:56;3.97;;;2.60;;
19828;SDS011;10075;50.924;4.396;2022-07-12T00:04:23;3.65;;;2.60;;
19828;SDS011;10075;50.924;4.396;2022-07-12T00:06:50;3.10;;;2.38;;
19828;SDS011;10075;50.924;4.396;2022-07-12T00:09:18;3.33;;;2.53;;
19828;SDS011;10075;50.924;4.396;2022-07-12T00:11:45;3.50;;;2.45;;
19828;SDS011;10075;50.924;4.396;2022-07-12T00:14:13;3.63;;;2.50;;
19828;SDS011;10075;50.924;4.396;2022-07-12T00:16:40;5.22;;;2.50;;
19828;SDS011;10075;50.924;4.396;2022-07-12T00:19:08;2.60;;;2.35;;
19828;SDS011;10075;50.924;4.396;2022-07-12T00:21:35;3.58;;;2.10;;
19828;SDS011;10075;50.924;4.396;2022-07-12T00:24:02;3.60;;;2.70;;
19828;SDS011;10075;50.924;4.396;2022-07-12T00:26:30;2.75;;;2.10;;
19828;SDS011;10075;50.924;4.396;2022-07-12T00:28:57;5.50;;;2.92;;
19828;SDS011;10075;50.924;4.396;2022-07-12T00:31:24;6.75;;;2.45;;
19828;SDS011;10075;50.924;4.396;2022-07-12T00:33:51;6.00;;;2.80;;
19828;SDS011;10075;50.924;4.396;2022-07-12T00:36:18;3.42;;;2.60;;
19828;SDS011;10075;50.924;4.396;2022-07-12T00:38:46;5.65;;;3.00;;
19828;SDS011;10075;50.924;4.396;2022-07-12T00:41:13;6.05;;;3.10;;
19828;SDS011;10075;50.924;4.396;2022-07-12T00:43:42;4.28;;;2.50;;
19828;SDS011;10075;50.924;4.396;2022-07-12T00:46:09;3.65;;;2.67;;
19828;SDS011;10075;50.924;4.396;2022-07-12T00:48:36;4.40;;;2.75;;
19828;SDS011;10075;50.924;4.396;2022-07-12T00:51:03;3.15;;;2.83;;
19828;SDS011;10075;50.924;4.396;2022-07-12T00:53:31;5.10;;;2.55;;
19828;SDS011;10075;50.924;4.396;2022-07-12T00:55:58;5.85;;;3.45;;
19828;SDS011;10075;50.924;4.396;2022-07-12T00:58:25;4.65;;;2.80;;
19828;SDS011;10075;50.924;4.396;2022-07-12T01:00:56;3.58;;;2.75;;
19828;SDS011;10075;50.924;4.396;2022-07-12T01:03:24;4.32;;;2.83;;
19828;SDS011;10075;50.924;4.396;2022-07-12T01:05:52;5.10;;;3.15;;
19828;SDS011;10075;50.924;4.396;2022-07-12T01:08:18;4.47;;;2.97;;
19828;SDS011;10075;50.924;4.396;2022-07-12T01:10:46;3.53;;;2.95;;
19828;SDS011;10075;50.924;4.396;2022-07-12T01:13:15;3.53;;;2.83;;
19828;SDS011;10075;50.924;4.396;2022-07-12T01:15:42;4.38;;;3.13;;
19828;SDS011;10075;50.924;4.396;2022-07-12T01:18:11;3.25;;;2.88;;
19828;SDS011;10075;50.924;4.396;2022-07-12T01:20:40;5.95;;;3.40;;
19828;SDS011;10075;50.924;4.396;2022-07-12T01:23:09;4.72;;;3.20;;
19828;SDS011;10075;50.924;4.396;2022-07-12T01:25:37;4.85;;;3.40;;
19828;SDS011;10075;50.924;4.396;2022-07-12T01:28:04;5.07;;;3.47;;
19828;SDS011;10075;50.924;4.396;2022-07-12T01:30:31;6.10;;;3.35;;
19828;SDS011;10075;50.924;4.396;2022-07-12T01:32:58;7.82;;;3.83;;
19828;SDS011;10075;50.924;4.396;2022-07-12T01:35:26;5.15;;;3.90;;
19828;SDS011;10075;50.924;4.396;2022-07-12T01:37:54;5.93;;;3.75;;
19828;SDS011;10075;50.924;4.396;2022-07-12T01:40:23;7.65;;;3.72;;
19828;SDS011;10075;50.924;4.396;2022-07-12T01:42:50;6.53;;;3.35;;
19828;SDS011;10075;50.924;4.396;2022-07-12T01:45:18;4.78;;;4.10;;
19828;SDS011;10075;50.924;4.396;2022-07-12T01:47:45;5.88;;;4.18;;
19828;SDS011;10075;50.924;4.396;2022-07-12T01:50:14;6.57;;;3.45;;
19828;SDS011;10075;50.924;4.396;2022-07-12T01:52:42;5.68;;;4.25;;
19828;SDS011;10075;50.924;4.396;2022-07-12T01:55:09;5.50;;;3.78;;
19828;SDS011;10075;50.924;4.396;2022-07-12T01:57:39;4.45;;;3.67;;
19828;SDS011;10075;50.924;4.396;2022-07-12T02:00:09;4.50;;;4.10;;
19828;SDS011;10075;50.924;4.396;2022-07-12T02:02:37;6.50;;;4.53;;
19828;SDS011;10075;50.924;4.396;2022-07-12T02:05:04;5.53;;;3.70;;
19828;SDS011;10075;50.924;4.396;2022-07-12T02:07:31;6.10;;;4.25;;
19828;SDS011;10075;50.924;4.396;2022-07-12T02:09:58;7.65;;;4.30;;
19828;SDS011;10075;50.924;4.396;2022-07-12T02:12:25;5.15;;;4.32;;
19828;SDS011;10075;50.924;4.396;2022-07-12T02:14:54;5.30;;;4.03;;
19828;SDS011;10075;50.924;4.396;2022-07-12T02:17:20;4.30;;;3.90;;
19828;SDS011;10075;50.924;4.396;2022-07-12T02:19:47;5.30;;;4.25;;
19828;SDS011;10075;50.924;4.396;2022-07-12T02:22:14;5.47;;;4.05;;
19828;SDS011;10075;50.924;4.396;2022-07-12T02:24:41;5.20;;;4.53;;
19828;SDS011;10075;50.924;4.396;2022-07-12T02:27:08;5.15;;;4.30;;
19828;SDS011;10075;50.924;4.396;2022-07-12T02:29:35;6.20;;;3.97;;
19828;SDS011;10075;50.924;4.396;2022-07-12T02:32:04;7.50;;;4.13;;
19828;SDS011;10075;50.924;4.396;2022-07-12T02:34:31;6.20;;;3.97;;
19828;SDS011;10075;50.924;4.396;2022-07-12T02:36:58;6.38;;;4.75;;
19828;SDS011;10075;50.924;4.396;2022-07-12T02:39:25;5.60;;;4.57;;
19828;SDS011;10075;50.924;4.396;2022-07-12T02:41:52;5.80;;;4.72;;
19828;SDS011;10075;50.924;4.396;2022-07-12T02:44:18;7.10;;;4.20;;
19828;SDS011;10075;50.924;4.396;2022-07-12T02:46:45;8.15;;;5.20;;
19828;SDS011;10075;50.924;4.396;2022-07-12T02:49:14;4.97;;;4.47;;
19828;SDS011;10075;50.924;4.396;2022-07-12T02:51:41;7.40;;;5.13;;
19828;SDS011;10075;50.924;4.396;2022-07-12T02:54:08;6.47;;;5.30;;
19828;SDS011;10075;50.924;4.396;2022-07-12T02:56:35;6.70;;;5.35;;
19828;SDS011;10075;50.924;4.396;2022-07-12T02:59:02;6.80;;;4.95;;
19828;SDS011;10075;50.924;4.396;2022-07-12T03:01:29;6.40;;;4.55;;
19828;SDS011;10075;50.924;4.396;2022-07-12T03:03:56;7.25;;;5.20;;
19828;SDS011;10075;50.924;4.396;2022-07-12T03:06:24;8.30;;;4.97;;
19828;SDS011;10075;50.924;4.396;2022-07-12T03:08:51;6.80;;;5.00;;
19828;SDS011;10075;50.924;4.396;2022-07-12T03:11:18;8.38;;;4.88;;
19828;SDS011;10075;50.924;4.396;2022-07-12T03:13:45;6.75;;;4.55;;
19828;SDS011;10075;50.924;4.396;2022-07-12T03:16:12;9.73;;;4.82;;
19828;SDS011;10075;50.924;4.396;2022-07-12T03:18:39;7.55;;;4.75;;
19828;SDS011;10075;50.924;4.396;2022-07-12T03:21:06;8.68;;;5.32;;
19828;SDS011;10075;50.924;4.396;2022-07-12T03:23:35;7.40;;;4.78;;
19828;SDS011;10075;50.924;4.396;2022-07-12T03:26:02;6.60;;;5.35;;
19828;SDS011;10075;50.924;4.396;2022-07-12T03:28:29;6.30;;;5.30;;
19828;SDS011;10075;50.924;4.396;2022-07-12T03:30:56;9.82;;;4.82;;
19828;SDS011;10075;50.924;4.396;2022-07-12T03:33:23;8.38;;;5.32;;
19828;SDS011;10075;50.924;4.396;2022-07-12T03:35:50;8.43;;;5.53;;
19828;SDS011;10075;50.924;4.396;2022-07-12T03:38:17;8.05;;;5.30;;
19828;SDS011;10075;50.924;4.396;2022-07-12T03:40:45;7.78;;;5.57;;
19828;SDS011;10075;50.924;4.396;2022-07-12T03:43:13;6.85;;;5.70;;
19828;SDS011;10075;50.924;4.396;2022-07-12T03:45:40;8.70;;;5.47;;
19828;SDS011;10075;50.924;4.396;2022-07-12T03:48:08;8.00;;;5.63;;
19828;SDS011;10075;50.924;4.396;2022-07-12T03:50:35;7.57;;;5.68;;
19828;SDS011;10075;50.924;4.396;2022-07-12T03:53:02;8.50;;;5.93;;
19828;SDS011;10075;50.924;4.396;2022-07-12T03:55:29;10.65;;;5.95;;
19828;SDS011;10075;50.924;4.396;2022-07-12T03:57:57;8.88;;;5.82;;
19828;SDS011;10075;50.924;4.396;2022-07-12T04:00:24;9.48;;;6.18;;
19828;SDS011;10075;50.924;4.396;2022-07-12T04:02:51;7.40;;;6.03;;
19828;SDS011;10075;50.924;4.396;2022-07-12T04:05:19;10.27;;;6.25;;
19828;SDS011;10075;50.924;4.396;2022-07-12T04:07:50;8.35;;;6.20;;
19828;SDS011;10075;50.924;4.396;2022-07-12T04:10:17;7.03;;;5.82;;
19828;SDS011;10075;50.924;4.396;2022-07-12T04:12:45;7.43;;;6.25;;
19828;SDS011;10075;50.924;4.396;2022-07-12T04:15:13;8.50;;;6.85;;
19828;SDS011;10075;50.924;4.396;2022-07-12T04:17:40;10.77;;;6.80;;
19828;SDS011;10075;50.924;4.396;2022-07-12T04:20:07;8.52;;;6.05;;
19828;SDS011;10075;50.924;4.396;2022-07-12T04:22:36;10.60;;;6.72;;
19828;SDS011;10075;50.924;4.396;2022-07-12T04:25:03;8.98;;;6.13;;
19828;SDS011;10075;50.924;4.396;2022-07-12T04:27:30;11.60;;;6.60;;
19828;SDS011;10075;50.924;4.396;2022-07-12T04:29:58;13.27;;;5.82;;
19828;SDS011;10075;50.924;4.396;2022-07-12T04:32:26;8.90;;;5.97;;
19828;SDS011;10075;50.924;4.396;2022-07-12T04:34:53;7.20;;;5.63;;
19828;SDS011;10075;50.924;4.396;2022-07-12T04:37:20;8.30;;;5.60;;
19828;SDS011;10075;50.924;4.396;2022-07-12T04:39:47;6.47;;;5.30;;
19828;SDS011;10075;50.924;4.396;2022-07-12T04:42:14;6.75;;;5.30;;
19828;SDS011;10075;50.924;4.396;2022-07-12T04:44:40;7.95;;;5.00;;
19828;SDS011;10075;50.924;4.396;2022-07-12T04:47:08;7.78;;;6.05;;
19828;SDS011;10075;50.924;4.396;2022-07-12T04:49:37;6.22;;;5.28;;
19828;SDS011;10075;50.924;4.396;2022-07-12T04:52:04;7.30;;;5.28;;
19828;SDS011;10075;50.924;4.396;2022-07-12T04:54:32;7.32;;;5.38;;
19828;SDS011;10075;50.924;4.396;2022-07-12T04:56:59;7.20;;;5.07;;
19828;SDS011;10075;50.924;4.396;2022-07-12T04:59:26;6.90;;;5.75;;
19828;SDS011;10075;50.924;4.396;2022-07-12T05:01:52;7.47;;;5.28;;
19828;SDS011;10075;50.924;4.396;2022-07-12T05:04:20;8.55;;;5.95;;
19828;SDS011;10075;50.924;4.396;2022-07-12T05:06:48;7.30;;;5.55;;
19828;SDS011;10075;50.924;4.396;2022-07-12T05:09:17;6.72;;;5.45;;
19828;SDS011;10075;50.924;4.396;2022-07-12T05:11:44;5.95;;;5.22;;
19828;SDS011;10075;50.924;4.396;2022-07-12T05:14:11;8.60;;;4.72;;
19828;SDS011;10075;50.924;4.396;2022-07-12T05:16:38;7.85;;;5.25;;
19828;SDS011;10075;50.924;4.396;2022-07-12T05:19:05;6.70;;;5.38;;
19828;SDS011;10075;50.924;4.396;2022-07-12T05:21:32;7.43;;;5.03;;
19828;SDS011;10075;50.924;4.396;2022-07-12T05:24:01;7.68;;;5.10;;
19828;SDS011;10075;50.924;4.396;2022-07-12T05:26:28;7.63;;;5.18;;
19828;SDS011;10075;50.924;4.396;2022-07-12T05:28:55;7.05;;;5.57;;
19828;SDS011;10075;50.924;4.396;2022-07-12T05:31:24;7.50;;;5.70;;
19828;SDS011;10075;50.924;4.396;2022-07-12T05:33:51;8.98;;;5.25;;
19828;SDS011;10075;50.924;4.396;2022-07-12T05:36:19;6.57;;;5.20;;
19828;SDS011;10075;50.924;4.396;2022-07-12T05:38:46;8.45;;;5.20;;
19828;SDS011;10075;50.924;4.396;2022-07-12T05:41:14;10.23;;;5.97;;
19828;SDS011;10075;50.924;4.396;2022-07-12T05:43:41;9.27;;;5.95;;
19828;SDS011;10075;50.924;4.396;2022-07-12T05:46:08;11.18;;;6.03;;
19828;SDS011;10075;50.924;4.396;2022-07-12T05:48:35;10.25;;;5.55;;
19828;SDS011;10075;50.924;4.396;2022-07-12T05:51:02;7.85;;;5.88;;
19828;SDS011;10075;50.924;4.396;2022-07-12T05:53:43;8.27;;;5.60;;
19828;SDS011;10075;50.924;4.396;2022-07-12T05:56:10;12.95;;;6.18;;
19828;SDS011;10075;50.924;4.396;2022-07-12T05:58:39;11.18;;;6.30;;
19828;SDS011;10075;50.924;4.396;2022-07-12T06:01:06;11.50;;;6.13;;
19828;SDS011;10075;50.924;4.396;2022-07-12T06:03:33;10.75;;;6.90;;
19828;SDS011;10075;50.924;4.396;2022-07-12T06:06:00;10.90;;;6.35;;
19828;SDS011;10075;50.924;4.396;2022-07-12T06:08:26;9.65;;;6.30;;
19828;SDS011;10075;50.924;4.396;2022-07-12T06:10:54;11.00;;;6.00;;
19828;SDS011;10075;50.924;4.396;2022-07-12T06:13:20;10.50;;;6.13;;
19828;SDS011;10075;50.924;4.396;2022-07-12T06:15:49;11.38;;;6.20;;
19828;SDS011;10075;50.924;4.396;2022-07-12T06:18:16;9.43;;;5.68;;
19828;SDS011;10075;50.924;4.396;2022-07-12T06:20:43;11.52;;;5.22;;
19828;SDS011;10075;50.924;4.396;2022-07-12T06:23:10;10.20;;;5.85;;
19828;SDS011;10075;50.924;4.396;2022-07-12T06:25:38;8.55;;;5.80;;
19828;SDS011;10075;50.924;4.396;2022-07-12T06:28:05;8.50;;;5.40;;
19828;SDS011;10075;50.924;4.396;2022-07-12T06:30:32;10.68;;;6.57;;
19828;SDS011;10075;50.924;4.396;2022-07-12T06:33:01;14.57;;;6.88;;
19828;SDS011;10075;50.924;4.396;2022-07-12T06:35:28;9.02;;;5.93;;
19828;SDS011;10075;50.924;4.396;2022-07-12T06:37:55;11.98;;;6.18;;
19828;SDS011;10075;50.924;4.396;2022-07-12T06:40:22;8.55;;;5.57;;
19828;SDS011;10075;50.924;4.396;2022-07-12T06:42:49;8.25;;;6.63;;
19828;SDS011;10075;50.924;4.396;2022-07-12T06:45:16;11.23;;;7.03;;
19828;SDS011;10075;50.924;4.396;2022-07-12T06:47:44;8.50;;;7.05;;
19828;SDS011;10075;50.924;4.396;2022-07-12T06:50:12;8.85;;;7.35;;
19828;SDS011;10075;50.924;4.396;2022-07-12T06:52:42;10.38;;;7.38;;
19828;SDS011;10075;50.924;4.396;2022-07-12T06:55:09;8.05;;;7.25;;
19828;SDS011;10075;50.924;4.396;2022-07-12T06:57:36;9.63;;;8.15;;
19828;SDS011;10075;50.924;4.396;2022-07-12T07:00:04;9.07;;;8.00;;
19828;SDS011;10075;50.924;4.396;2022-07-12T07:02:32;9.00;;;7.72;;
19828;SDS011;10075;50.924;4.396;2022-07-12T07:04:59;9.50;;;7.13;;
19828;SDS011;10075;50.924;4.396;2022-07-12T07:07:27;8.45;;;7.10;;
19828;SDS011;10075;50.924;4.396;2022-07-12T07:09:54;16.70;;;7.45;;
19828;SDS011;10075;50.924;4.396;2022-07-12T07:12:21;8.65;;;7.80;;
19828;SDS011;10075;50.924;4.396;2022-07-12T07:14:49;9.90;;;7.00;;
19828;SDS011;10075;50.924;4.396;2022-07-12T07:17:16;20.55;;;8.18;;
19828;SDS011;10075;50.924;4.396;2022-07-12T07:19:44;8.15;;;7.20;;
19828;SDS011;10075;50.924;4.396;2022-07-12T07:22:11;8.32;;;7.53;;
19828;SDS011;10075;50.924;4.396;2022-07-12T07:24:40;10.10;;;6.80;;
19828;SDS011;10075;50.924;4.396;2022-07-12T07:27:07;8.73;;;6.97;;
19828;SDS011;10075;50.924;4.396;2022-07-12T07:29:34;7.72;;;7.00;;
19828;SDS011;10075;50.924;4.396;2022-07-12T07:32:19;12.20;;;7.50;;
19828;SDS011;10075;50.924;4.396;2022-07-12T07:34:46;11.52;;;7.18;;
19828;SDS011;10075;50.924;4.396;2022-07-12T07:37:13;11.60;;;7.30;;
19828;SDS011;10075;50.924;4.396;2022-07-12T07:39:41;8.75;;;7.05;;
19828;SDS011;10075;50.924;4.396;2022-07-12T07:42:08;10.15;;;6.68;;
19828;SDS011;10075;50.924;4.396;2022-07-12T07:44:35;8.38;;;6.28;;
19828;SDS011;10075;50.924;4.396;2022-07-12T07:47:02;11.23;;;6.18;;
19828;SDS011;10075;50.924;4.396;2022-07-12T07:49:30;9.68;;;6.40;;
19828;SDS011;10075;50.924;4.396;2022-07-12T07:51:57;13.25;;;6.20;;
19828;SDS011;10075;50.924;4.396;2022-07-12T07:54:24;8.20;;;6.03;;
19828;SDS011;10075;50.924;4.396;2022-07-12T07:56:52;9.38;;;6.55;;
19828;SDS011;10075;50.924;4.396;2022-07-12T07:59:19;8.80;;;6.22;;
19828;SDS011;10075;50.924;4.396;2022-07-12T08:01:46;8.48;;;6.25;;
19828;SDS011;10075;50.924;4.396;2022-07-12T08:04:17;8.48;;;6.43;;
19828;SDS011;10075;50.924;4.396;2022-07-12T08:06:46;8.32;;;6.25;;
19828;SDS011;10075;50.924;4.396;2022-07-12T08:09:14;9.57;;;6.05;;
19828;SDS011;10075;50.924;4.396;2022-07-12T08:11:42;7.00;;;5.38;;
19828;SDS011;10075;50.924;4.396;2022-07-12T08:14:10;6.50;;;4.90;;
19828;SDS011;10075;50.924;4.396;2022-07-12T08:16:37;6.65;;;5.28;;
19828;SDS011;10075;50.924;4.396;2022-07-12T08:19:05;6.78;;;4.95;;
19828;SDS011;10075;50.924;4.396;2022-07-12T08:21:32;6.63;;;5.32;;
19828;SDS011;10075;50.924;4.396;2022-07-12T08:23:59;5.35;;;4.78;;
19828;SDS011;10075;50.924;4.396;2022-07-12T08:26:26;11.25;;;5.35;;
19828;SDS011;10075;50.924;4.396;2022-07-12T08:28:53;8.00;;;5.20;;
19828;SDS011;10075;50.924;4.396;2022-07-12T08:31:21;5.55;;;4.68;;
19828;SDS011;10075;50.924;4.396;2022-07-12T08:33:48;8.18;;;5.03;;
19828;SDS011;10075;50.924;4.396;2022-07-12T08:36:16;5.70;;;4.82;;
19828;SDS011;10075;50.924;4.396;2022-07-12T08:38:43;6.45;;;5.10;;
19828;SDS011;10075;50.924;4.396;2022-07-12T08:41:11;7.88;;;4.40;;
19828;SDS011;10075;50.924;4.396;2022-07-12T08:43:38;7.10;;;4.85;;
19828;SDS011;10075;50.924;4.396;2022-07-12T08:46:06;7.10;;;4.65;;
19828;SDS011;10075;50.924;4.396;2022-07-12T08:48:35;6.57;;;5.28;;
19828;SDS011;10075;50.924;4.396;2022-07-12T08:51:03;6.32;;;4.45;;
19828;SDS011;10075;50.924;4.396;2022-07-12T08:53:31;4.90;;;4.43;;
19828;SDS011;10075;50.924;4.396;2022-07-12T08:55:59;5.05;;;4.43;;
19828;SDS011;10075;50.924;4.396;2022-07-12T08:58:26;7.15;;;4.68;;
19828;SDS011;10075;50.924;4.396;2022-07-12T09:00:53;4.00;;;3.65;;
19828;SDS011;10075;50.924;4.396;2022-07-12T09:03:20;6.82;;;4.70;;
19828;SDS011;10075;50.924;4.396;2022-07-12T09:05:49;5.13;;;4.45;;
19828;SDS011;10075;50.924;4.396;2022-07-12T09:08:27;4.55;;;3.80;;
19828;SDS011;10075;50.924;4.396;2022-07-12T09:10:56;7.43;;;4.10;;
19828;SDS011;10075;50.924;4.396;2022-07-12T09:16:15;4.28;;;3.88;;
19828;SDS011;10075;50.924;4.396;2022-07-12T09:18:44;6.78;;;4.05;;
19828;SDS011;10075;50.924;4.396;2022-07-12T09:21:23;4.13;;;3.28;;
19828;SDS011;10075;50.924;4.396;2022-07-12T09:23:52;4.82;;;3.67;;
19828;SDS011;10075;50.924;4.396;2022-07-12T09:26:20;5.82;;;4.00;;
19828;SDS011;10075;50.924;4.396;2022-07-12T09:28:48;4.85;;;4.35;;
19828;SDS011;10075;50.924;4.396;2022-07-12T09:31:17;3.72;;;3.42;;
19828;SDS011;10075;50.924;4.396;2022-07-12T09:34:00;7.63;;;3.65;;
19828;SDS011;10075;50.924;4.396;2022-07-12T09:36:55;4.30;;;3.75;;
19828;SDS011;10075;50.924;4.396;2022-07-12T09:39:23;4.18;;;3.55;;
19828;SDS011;10075;50.924;4.396;2022-07-12T09:41:52;3.55;;;3.25;;
19828;SDS011;10075;50.924;4.396;2022-07-12T09:44:20;5.50;;;3.70;;
19828;SDS011;10075;50.924;4.396;2022-07-12T09:46:47;4.72;;;3.92;;
19828;SDS011;10075;50.924;4.396;2022-07-12T09:49:14;4.55;;;4.15;;
19828;SDS011;10075;50.924;4.396;2022-07-12T09:51:43;5.55;;;3.30;;
19828;SDS011;10075;50.924;4.396;2022-07-12T09:54:14;4.80;;;3.50;;
19828;SDS011;10075;50.924;4.396;2022-07-12T09:56:49;4.13;;;3.72;;
19828;SDS011;10075;50.924;4.396;2022-07-12T09:59:20;5.82;;;3.50;;
19828;SDS011;10075;50.924;4.396;2022-07-12T10:01:49;4.53;;;3.28;;
19828;SDS011;10075;50.924;4.396;2022-07-12T10:04:19;4.53;;;3.63;;
19828;SDS011;10075;50.924;4.396;2022-07-12T10:06:47;4.18;;;3.33;;
19828;SDS011;10075;50.924;4.396;2022-07-12T10:09:16;3.30;;;3.00;;
19828;SDS011;10075;50.924;4.396;2022-07-12T10:11:43;5.50;;;2.67;;
19828;SDS011;10075;50.924;4.396;2022-07-12T10:14:11;4.50;;;2.92;;
19828;SDS011;10075;50.924;4.396;2022-07-12T10:16:38;5.88;;;3.40;;
19828;SDS011;10075;50.924;4.396;2022-07-12T10:19:21;6.55;;;3.50;;
19828;SDS011;10075;50.924;4.396;2022-07-12T10:21:49;4.10;;;2.97;;
19828;SDS011;10075;50.924;4.396;2022-07-12T10:27:27;3.90;;;2.80;;
19828;SDS011;10075;50.924;4.396;2022-07-12T10:30:11;5.43;;;3.20;;
19828;SDS011;10075;50.924;4.396;2022-07-12T10:32:43;4.80;;;3.25;;
19828;SDS011;10075;50.924;4.396;2022-07-12T10:35:15;3.63;;;3.03;;
19828;SDS011;10075;50.924;4.396;2022-07-12T10:41:00;4.05;;;3.10;;
19828;SDS011;10075;50.924;4.396;2022-07-12T10:43:43;5.50;;;3.47;;
19828;SDS011;10075;50.924;4.396;2022-07-12T10:46:28;3.58;;;3.03;;
19828;SDS011;10075;50.924;4.396;2022-07-12T10:57:46;3.53;;;2.88;;
19828;SDS011;10075;50.924;4.396;2022-07-12T11:00:17;2.80;;;2.30;;
19828;SDS011;10075;50.924;4.396;2022-07-12T11:02:44;2.42;;;2.10;;
19828;SDS011;10075;50.924;4.396;2022-07-12T11:05:11;2.92;;;2.20;;
19828;SDS011;10075;50.924;4.396;2022-07-12T11:07:41;3.15;;;2.85;;
19828;SDS011;10075;50.924;4.396;2022-07-12T11:10:11;3.15;;;2.85;;
19828;SDS011;10075;50.924;4.396;2022-07-12T11:12:38;6.45;;;2.90;;
19828;SDS011;10075;50.924;4.396;2022-07-12T11:15:07;3.05;;;2.75;;
19828;SDS011;10075;50.924;4.396;2022-07-12T11:17:35;4.85;;;2.50;;
19828;SDS011;10075;50.924;4.396;2022-07-12T11:20:03;3.08;;;2.78;;
19828;SDS011;10075;50.924;4.396;2022-07-12T11:22:31;5.68;;;2.80;;
19828;SDS011;10075;50.924;4.396;2022-07-12T11:24:58;4.03;;;3.63;;
19828;SDS011;10075;50.924;4.396;2022-07-12T11:27:26;2.70;;;2.50;;
19828;SDS011;10075;50.924;4.396;2022-07-12T11:29:57;3.38;;;2.78;;
19828;SDS011;10075;50.924;4.396;2022-07-12T11:32:34;3.58;;;2.80;;
19828;SDS011;10075;50.924;4.396;2022-07-12T11:35:03;4.60;;;2.70;;
19828;SDS011;10075;50.924;4.396;2022-07-12T11:37:31;3.58;;;2.95;;
19828;SDS011;10075;50.924;4.396;2022-07-12T11:39:58;5.55;;;3.00;;
19828;SDS011;10075;50.924;4.396;2022-07-12T11:42:25;3.67;;;3.10;;
19828;SDS011;10075;50.924;4.396;2022-07-12T11:44:52;3.65;;;2.90;;
19828;SDS011;10075;50.924;4.396;2022-07-12T11:47:20;6.13;;;3.10;;
19828;SDS011;10075;50.924;4.396;2022-07-12T11:49:51;4.80;;;2.80;;
19828;SDS011;10075;50.924;4.396;2022-07-12T11:52:20;5.85;;;3.65;;
19828;SDS011;10075;50.924;4.396;2022-07-12T11:54:49;6.35;;;3.22;;
19828;SDS011;10075;50.924;4.396;2022-07-12T11:57:19;6.07;;;3.03;;
19828;SDS011;10075;50.924;4.396;2022-07-12T11:59:48;3.40;;;3.10;;
19828;SDS011;10075;50.924;4.396;2022-07-12T12:02:15;3.58;;;2.50;;
19828;SDS011;10075;50.924;4.396;2022-07-12T12:04:43;3.05;;;2.67;;
19828;SDS011;10075;50.924;4.396;2022-07-12T12:07:13;4.28;;;2.78;;
19828;SDS011;10075;50.924;4.396;2022-07-12T12:09:57;4.13;;;2.85;;
19828;SDS011;10075;50.924;4.396;2022-07-12T12:12:24;3.00;;;2.70;;
19828;SDS011;10075;50.924;4.396;2022-07-12T12:14:51;5.13;;;2.88;;
19828;SDS011;10075;50.924;4.396;2022-07-12T12:17:18;4.30;;;2.80;;
19828;SDS011;10075;50.924;4.396;2022-07-12T12:19:45;3.88;;;2.70;;
19828;SDS011;10075;50.924;4.396;2022-07-12T12:24:58;3.90;;;2.38;;
19828;SDS011;10075;50.924;4.396;2022-07-12T12:27:26;2.75;;;2.35;;
19828;SDS011;10075;50.924;4.396;2022-07-12T12:29:53;3.10;;;2.80;;
19828;SDS011;10075;50.924;4.396;2022-07-12T12:32:24;2.58;;;2.38;;
19828;SDS011;10075;50.924;4.396;2022-07-12T12:35:06;3.05;;;2.75;;
19828;SDS011;10075;50.924;4.396;2022-07-12T12:37:35;3.55;;;2.80;;
19828;SDS011;10075;50.924;4.396;2022-07-12T12:40:03;3.13;;;2.50;;
19828;SDS011;10075;50.924;4.396;2022-07-12T12:42:30;4.03;;;2.78;;
19828;SDS011;10075;50.924;4.396;2022-07-12T12:44:57;2.70;;;2.40;;
19828;SDS011;10075;50.924;4.396;2022-07-12T12:47:26;3.38;;;2.63;;
19828;SDS011;10075;50.924;4.396;2022-07-12T12:49:59;4.65;;;3.20;;
19828;SDS011;10075;50.924;4.396;2022-07-12T12:52:27;3.28;;;2.60;;
19828;SDS011;10075;50.924;4.396;2022-07-12T12:54:57;4.93;;;2.70;;
19828;SDS011;10075;50.924;4.396;2022-07-12T12:57:24;3.22;;;2.63;;
19828;SDS011;10075;50.924;4.396;2022-07-12T12:59:52;4.07;;;2.78;;
19828;SDS011;10075;50.924;4.396;2022-07-12T13:02:19;4.43;;;2.78;;
19828;SDS011;10075;50.924;4.396;2022-07-12T13:04:49;4.30;;;2.78;;
19828;SDS011;10075;50.924;4.396;2022-07-12T13:07:16;2.85;;;2.30;;
19828;SDS011;10075;50.924;4.396;2022-07-12T13:09:43;3.00;;;2.70;;
19828;SDS011;10075;50.924;4.396;2022-07-12T13:12:11;3.45;;;2.72;;
19828;SDS011;10075;50.924;4.396;2022-07-12T13:14:38;3.70;;;2.90;;
19828;SDS011;10075;50.924;4.396;2022-07-12T13:17:05;3.33;;;2.80;;
19828;SDS011;10075;50.924;4.396;2022-07-12T13:19:33;5.90;;;3.00;;
19828;SDS011;10075;50.924;4.396;2022-07-12T13:22:00;5.47;;;3.20;;
19828;SDS011;10075;50.924;4.396;2022-07-12T13:24:27;6.05;;;3.50;;
19828;SDS011;10075;50.924;4.396;2022-07-12T13:26:54;5.93;;;3.08;;
19828;SDS011;10075;50.924;4.396;2022-07-12T13:29:22;6.60;;;3.30;;
19828;SDS011;10075;50.924;4.396;2022-07-12T13:31:50;4.35;;;3.05;;
19828;SDS011;10075;50.924;4.396;2022-07-12T13:34:16;4.05;;;3.13;;
19828;SDS011;10075;50.924;4.396;2022-07-12T13:36:43;4.35;;;3.28;;
19828;SDS011;10075;50.924;4.396;2022-07-12T13:39:10;4.95;;;3.10;;
19828;SDS011;10075;50.924;4.396;2022-07-12T13:41:54;3.97;;;3.10;;
19828;SDS011;10075;50.924;4.396;2022-07-12T13:44:23;6.70;;;3.45;;
19828;SDS011;10075;50.924;4.396;2022-07-12T13:46:50;4.45;;;3.20;;
19828;SDS011;10075;50.924;4.396;2022-07-12T13:49:17;3.38;;;3.00;;
19828;SDS011;10075;50.924;4.396;2022-07-12T13:51:44;5.28;;;2.80;;
19828;SDS011;10075;50.924;4.396;2022-07-12T13:54:10;6.13;;;2.85;;
19828;SDS011;10075;50.924;4.396;2022-07-12T13:56:37;4.93;;;3.05;;
19828;SDS011;10075;50.924;4.396;2022-07-12T13:59:05;4.55;;;2.92;;
19828;SDS011;10075;50.924;4.396;2022-07-12T14:01:34;4.00;;;3.35;;
19828;SDS011;10075;50.924;4.396;2022-07-12T14:04:01;6.70;;;3.08;;
19828;SDS011;10075;50.924;4.396;2022-07-12T14:06:27;4.07;;;2.90;;
19828;SDS011;10075;50.924;4.396;2022-07-12T14:08:55;5.45;;;3.38;;
19828;SDS011;10075;50.924;4.396;2022-07-12T14:11:22;4.38;;;3.13;;
19828;SDS011;10075;50.924;4.396;2022-07-12T14:13:50;4.68;;;3.28;;
19828;SDS011;10075;50.924;4.396;2022-07-12T14:16:17;4.00;;;2.80;;
19828;SDS011;10075;50.924;4.396;2022-07-12T14:18:46;7.55;;;3.35;;
19828;SDS011;10075;50.924;4.396;2022-07-12T14:21:13;5.28;;;3.13;;
19828;SDS011;10075;50.924;4.396;2022-07-12T14:23:40;4.25;;;2.67;;
19828;SDS011;10075;50.924;4.396;2022-07-12T14:26:07;3.28;;;2.83;;
19828;SDS011;10075;50.924;4.396;2022-07-12T14:28:34;4.00;;;2.95;;
19828;SDS011;10075;50.924;4.396;2022-07-12T14:31:02;5.57;;;2.67;;
19828;SDS011;10075;50.924;4.396;2022-07-12T14:33:29;2.92;;;2.20;;
19828;SDS011;10075;50.924;4.396;2022-07-12T14:35:58;3.55;;;2.65;;
19828;SDS011;10075;50.924;4.396;2022-07-12T14:38:25;6.18;;;3.03;;
19828;SDS011;10075;50.924;4.396;2022-07-12T14:40:52;4.47;;;2.40;;
19828;SDS011;10075;50.924;4.396;2022-07-12T14:43:19;8.63;;;2.25;;
19828;SDS011;10075;50.924;4.396;2022-07-12T14:45:46;3.40;;;2.60;;
19828;SDS011;10075;50.924;4.396;2022-07-12T14:48:13;4.47;;;2.38;;
19828;SDS011;10075;50.924;4.396;2022-07-12T14:50:40;5.60;;;1.80;;
19828;SDS011;10075;50.924;4.396;2022-07-12T14:53:08;2.70;;;2.05;;
19828;SDS011;10075;50.924;4.396;2022-07-12T14:55:35;3.45;;;1.80;;
19828;SDS011;10075;50.924;4.396;2022-07-12T14:58:02;4.90;;;2.20;;
19828;SDS011;10075;50.924;4.396;2022-07-12T15:00:31;3.58;;;2.00;;
19828;SDS011;10075;50.924;4.396;2022-07-12T15:02:58;3.20;;;2.03;;
19828;SDS011;10075;50.924;4.396;2022-07-12T15:05:25;6.28;;;2.00;;
19828;SDS011;10075;50.924;4.396;2022-07-12T15:07:53;2.40;;;2.05;;
19828;SDS011;10075;50.924;4.396;2022-07-12T15:10:21;5.20;;;2.15;;
19828;SDS011;10075;50.924;4.396;2022-07-12T15:12:48;2.55;;;1.75;;